sensor_id;sensor_type;location;lat;lon;timestamp;P1;durP1;ratioP1;P2;durP2;ratioP2
23720;SDS011;42950;52.134;5.578;2023-05-10T00:00:59;24.10;;;20.92;;
23720;SDS011;42950;52.134;5.578;2023-05-10T00:03:24;24.75;;;20.60;;
23720;SDS011;42950;52.134;5.578;2023-05-10T00:05:50;25.67;;;21.42;;
23720;SDS011;42950;52.134;5.578;2023-05-10T00:08:16;24.52;;;20.40;;
23720;SDS011;42950;52.134;5.578;2023-05-10T00:10:42;22.83;;;19.85;;
23720;SDS011;42950;52.134;5.578;2023-05-10T00:13:07;23.85;;;20.58;;
23720;SDS011;42950;52.134;5.578;2023-05-10T00:15:33;25.83;;;21.00;;
23720;SDS011;42950;52.134;5.578;2023-05-10T00:17:59;27.42;;;20.60;;
23720;SDS011;42950;52.134;5.578;2023-05-10T00:20:26;26.42;;;21.63;;
23720;SDS011;42950;52.134;5.578;2023-05-10T00:22:52;26.10;;;22.20;;
23720;SDS011;42950;52.134;5.578;2023-05-10T00:25:17;25.40;;;20.83;;
23720;SDS011;42950;52.134;5.578;2023-05-10T00:27:43;28.23;;;22.73;;
23720;SDS011;42950;52.134;5.578;2023-05-10T00:30:08;28.48;;;22.33;;
23720;SDS011;42950;52.134;5.578;2023-05-10T00:32:35;27.45;;;22.33;;
23720;SDS011;42950;52.134;5.578;2023-05-10T00:35:01;27.08;;;22.58;;
23720;SDS011;42950;52.134;5.578;2023-05-10T00:37:26;37.28;;;26.50;;
23720;SDS011;42950;52.134;5.578;2023-05-10T00:39:52;41.45;;;29.40;;
23720;SDS011;42950;52.134;5.578;2023-05-10T00:42:18;39.35;;;28.52;;
23720;SDS011;42950;52.134;5.578;2023-05-10T00:44:43;42.05;;;28.13;;
23720;SDS011;42950;52.134;5.578;2023-05-10T00:47:10;41.67;;;29.15;;
23720;SDS011;42950;52.134;5.578;2023-05-10T00:49:36;41.25;;;30.73;;
23720;SDS011;42950;52.134;5.578;2023-05-10T00:52:02;38.13;;;27.65;;
23720;SDS011;42950;52.134;5.578;2023-05-10T00:54:28;44.58;;;30.30;;
23720;SDS011;42950;52.134;5.578;2023-05-10T00:56:55;44.45;;;31.42;;
23720;SDS011;42950;52.134;5.578;2023-05-10T00:59:22;42.63;;;30.45;;
23720;SDS011;42950;52.134;5.578;2023-05-10T01:01:49;51.28;;;34.13;;
23720;SDS011;42950;52.134;5.578;2023-05-10T01:04:14;57.63;;;36.33;;
23720;SDS011;42950;52.134;5.578;2023-05-10T01:06:41;65.38;;;38.85;;
23720;SDS011;42950;52.134;5.578;2023-05-10T01:09:07;66.32;;;40.05;;
23720;SDS011;42950;52.134;5.578;2023-05-10T01:11:36;69.57;;;40.55;;
23720;SDS011;42950;52.134;5.578;2023-05-10T01:14:03;69.72;;;40.20;;
23720;SDS011;42950;52.134;5.578;2023-05-10T01:16:34;67.78;;;39.63;;
23720;SDS011;42950;52.134;5.578;2023-05-10T01:19:06;77.55;;;41.50;;
23720;SDS011;42950;52.134;5.578;2023-05-10T01:35:20;86.10;;;45.83;;
23720;SDS011;42950;52.134;5.578;2023-05-10T01:38:08;78.03;;;42.78;;
23720;SDS011;42950;52.134;5.578;2023-05-10T01:43:14;87.28;;;43.92;;
23720;SDS011;42950;52.134;5.578;2023-05-10T01:48:37;85.95;;;43.85;;
23720;SDS011;42950;52.134;5.578;2023-05-10T01:51:11;86.50;;;45.00;;
23720;SDS011;42950;52.134;5.578;2023-05-10T01:53:37;82.13;;;43.50;;
23720;SDS011;42950;52.134;5.578;2023-05-10T01:56:05;88.30;;;46.17;;
23720;SDS011;42950;52.134;5.578;2023-05-10T01:58:33;81.32;;;43.80;;
23720;SDS011;42950;52.134;5.578;2023-05-10T02:01:01;77.97;;;43.30;;
23720;SDS011;42950;52.134;5.578;2023-05-10T02:03:29;79.80;;;44.05;;
23720;SDS011;42950;52.134;5.578;2023-05-10T02:05:57;81.47;;;42.88;;
23720;SDS011;42950;52.134;5.578;2023-05-10T02:08:24;83.07;;;42.13;;
23720;SDS011;42950;52.134;5.578;2023-05-10T02:10:54;76.68;;;43.25;;
23720;SDS011;42950;52.134;5.578;2023-05-10T02:13:23;82.40;;;43.10;;
23720;SDS011;42950;52.134;5.578;2023-05-10T02:15:51;79.15;;;42.00;;
23720;SDS011;42950;52.134;5.578;2023-05-10T02:18:18;76.30;;;41.78;;
23720;SDS011;42950;52.134;5.578;2023-05-10T02:20:47;83.22;;;43.10;;
23720;SDS011;42950;52.134;5.578;2023-05-10T02:23:13;82.10;;;42.45;;
23720;SDS011;42950;52.134;5.578;2023-05-10T02:25:41;75.85;;;41.35;;
23720;SDS011;42950;52.134;5.578;2023-05-10T02:28:08;72.10;;;39.15;;
23720;SDS011;42950;52.134;5.578;2023-05-10T02:30:36;77.15;;;42.17;;
23720;SDS011;42950;52.134;5.578;2023-05-10T02:33:04;78.97;;;41.10;;
23720;SDS011;42950;52.134;5.578;2023-05-10T02:35:31;70.63;;;39.05;;
23720;SDS011;42950;52.134;5.578;2023-05-10T02:37:58;75.55;;;41.13;;
23720;SDS011;42950;52.134;5.578;2023-05-10T02:40:25;75.20;;;39.47;;
23720;SDS011;42950;52.134;5.578;2023-05-10T02:42:52;84.28;;;41.83;;
23720;SDS011;42950;52.134;5.578;2023-05-10T02:45:22;76.93;;;41.17;;
23720;SDS011;42950;52.134;5.578;2023-05-10T02:47:51;76.97;;;40.53;;
23720;SDS011;42950;52.134;5.578;2023-05-10T02:50:18;76.72;;;41.05;;
23720;SDS011;42950;52.134;5.578;2023-05-10T02:52:49;74.00;;;40.58;;
23720;SDS011;42950;52.134;5.578;2023-05-10T02:55:17;76.35;;;41.40;;
23720;SDS011;42950;52.134;5.578;2023-05-10T02:57:48;75.25;;;41.30;;
23720;SDS011;42950;52.134;5.578;2023-05-10T03:00:18;82.10;;;42.33;;
23720;SDS011;42950;52.134;5.578;2023-05-10T03:02:44;75.85;;;40.05;;
23720;SDS011;42950;52.134;5.578;2023-05-10T03:05:10;88.07;;;43.58;;
23720;SDS011;42950;52.134;5.578;2023-05-10T03:07:36;89.95;;;44.25;;
23720;SDS011;42950;52.134;5.578;2023-05-10T03:10:02;89.28;;;45.03;;
23720;SDS011;42950;52.134;5.578;2023-05-10T03:12:33;80.72;;;42.97;;
23720;SDS011;42950;52.134;5.578;2023-05-10T03:15:31;79.75;;;42.47;;
23720;SDS011;42950;52.134;5.578;2023-05-10T03:18:28;80.30;;;41.33;;
23720;SDS011;42950;52.134;5.578;2023-05-10T03:21:02;80.03;;;41.45;;
23720;SDS011;42950;52.134;5.578;2023-05-10T03:23:40;88.50;;;43.63;;
23720;SDS011;42950;52.134;5.578;2023-05-10T03:26:09;86.85;;;43.83;;
23720;SDS011;42950;52.134;5.578;2023-05-10T03:28:38;89.03;;;44.70;;
23720;SDS011;42950;52.134;5.578;2023-05-10T03:31:05;94.05;;;44.95;;
23720;SDS011;42950;52.134;5.578;2023-05-10T03:33:31;89.43;;;43.92;;
23720;SDS011;42950;52.134;5.578;2023-05-10T03:35:57;98.40;;;45.10;;
23720;SDS011;42950;52.134;5.578;2023-05-10T03:38:23;103.65;;;48.55;;
23720;SDS011;42950;52.134;5.578;2023-05-10T03:40:48;104.63;;;47.80;;
23720;SDS011;42950;52.134;5.578;2023-05-10T03:43:14;102.47;;;46.42;;
23720;SDS011;42950;52.134;5.578;2023-05-10T03:45:40;112.30;;;48.47;;
23720;SDS011;42950;52.134;5.578;2023-05-10T03:48:07;104.35;;;46.55;;
23720;SDS011;42950;52.134;5.578;2023-05-10T03:50:34;113.55;;;47.90;;
23720;SDS011;42950;52.134;5.578;2023-05-10T03:53:00;119.60;;;48.42;;
23720;SDS011;42950;52.134;5.578;2023-05-10T03:55:25;116.10;;;47.13;;
23720;SDS011;42950;52.134;5.578;2023-05-10T03:57:53;134.68;;;49.35;;
23720;SDS011;42950;52.134;5.578;2023-05-10T04:00:19;130.27;;;49.33;;
23720;SDS011;42950;52.134;5.578;2023-05-10T04:02:45;123.10;;;48.25;;
23720;SDS011;42950;52.134;5.578;2023-05-10T04:05:12;121.72;;;47.55;;
23720;SDS011;42950;52.134;5.578;2023-05-10T04:07:37;122.50;;;48.22;;
23720;SDS011;42950;52.134;5.578;2023-05-10T04:10:04;127.80;;;47.40;;
23720;SDS011;42950;52.134;5.578;2023-05-10T04:12:30;129.38;;;48.47;;
23720;SDS011;42950;52.134;5.578;2023-05-10T04:14:56;132.77;;;49.17;;
23720;SDS011;42950;52.134;5.578;2023-05-10T04:17:21;126.25;;;49.03;;
23720;SDS011;42950;52.134;5.578;2023-05-10T04:19:47;131.77;;;50.70;;
23720;SDS011;42950;52.134;5.578;2023-05-10T04:22:12;143.32;;;51.38;;
23720;SDS011;42950;52.134;5.578;2023-05-10T04:24:38;144.80;;;51.25;;
23720;SDS011;42950;52.134;5.578;2023-05-10T04:27:04;133.05;;;50.00;;
23720;SDS011;42950;52.134;5.578;2023-05-10T04:29:29;138.90;;;50.70;;
23720;SDS011;42950;52.134;5.578;2023-05-10T04:31:56;135.65;;;49.78;;
23720;SDS011;42950;52.134;5.578;2023-05-10T04:34:23;126.28;;;48.58;;
23720;SDS011;42950;52.134;5.578;2023-05-10T04:36:49;125.35;;;47.10;;
23720;SDS011;42950;52.134;5.578;2023-05-10T04:39:15;120.90;;;46.15;;
23720;SDS011;42950;52.134;5.578;2023-05-10T04:41:40;119.95;;;45.10;;
23720;SDS011;42950;52.134;5.578;2023-05-10T04:44:07;121.28;;;47.20;;
23720;SDS011;42950;52.134;5.578;2023-05-10T04:46:33;116.20;;;44.17;;
23720;SDS011;42950;52.134;5.578;2023-05-10T04:48:58;110.05;;;44.17;;
23720;SDS011;42950;52.134;5.578;2023-05-10T04:51:24;119.90;;;46.42;;
23720;SDS011;42950;52.134;5.578;2023-05-10T04:53:50;124.05;;;46.85;;
23720;SDS011;42950;52.134;5.578;2023-05-10T04:56:15;115.57;;;43.65;;
23720;SDS011;42950;52.134;5.578;2023-05-10T04:58:42;118.18;;;44.90;;
23720;SDS011;42950;52.134;5.578;2023-05-10T05:01:08;104.78;;;43.55;;
23720;SDS011;42950;52.134;5.578;2023-05-10T05:03:35;110.72;;;42.03;;
23720;SDS011;42950;52.134;5.578;2023-05-10T05:06:01;106.68;;;41.05;;
23720;SDS011;42950;52.134;5.578;2023-05-10T05:08:33;103.50;;;40.67;;
23720;SDS011;42950;52.134;5.578;2023-05-10T05:11:00;111.47;;;42.05;;
23720;SDS011;42950;52.134;5.578;2023-05-10T05:13:25;100.78;;;41.97;;
23720;SDS011;42950;52.134;5.578;2023-05-10T05:15:52;115.75;;;44.25;;
23720;SDS011;42950;52.134;5.578;2023-05-10T05:18:18;116.00;;;43.42;;
23720;SDS011;42950;52.134;5.578;2023-05-10T05:20:45;116.28;;;44.22;;
23720;SDS011;42950;52.134;5.578;2023-05-10T05:23:11;110.95;;;43.42;;
23720;SDS011;42950;52.134;5.578;2023-05-10T05:25:37;127.57;;;46.88;;
23720;SDS011;42950;52.134;5.578;2023-05-10T05:28:02;116.50;;;43.97;;
23720;SDS011;42950;52.134;5.578;2023-05-10T05:30:28;129.73;;;47.22;;
23720;SDS011;42950;52.134;5.578;2023-05-10T05:32:54;125.90;;;46.15;;
23720;SDS011;42950;52.134;5.578;2023-05-10T05:35:19;129.57;;;45.65;;
23720;SDS011;42950;52.134;5.578;2023-05-10T05:37:45;120.07;;;44.75;;
23720;SDS011;42950;52.134;5.578;2023-05-10T05:40:14;124.03;;;45.90;;
23720;SDS011;42950;52.134;5.578;2023-05-10T05:42:40;116.25;;;43.20;;
23720;SDS011;42950;52.134;5.578;2023-05-10T05:45:05;117.55;;;43.83;;
23720;SDS011;42950;52.134;5.578;2023-05-10T05:47:32;128.63;;;46.50;;
23720;SDS011;42950;52.134;5.578;2023-05-10T05:49:57;132.27;;;46.83;;
23720;SDS011;42950;52.134;5.578;2023-05-10T05:52:23;130.10;;;46.08;;
23720;SDS011;42950;52.134;5.578;2023-05-10T05:54:48;137.57;;;46.08;;
23720;SDS011;42950;52.134;5.578;2023-05-10T05:57:14;122.72;;;44.20;;
23720;SDS011;42950;52.134;5.578;2023-05-10T05:59:40;135.73;;;45.72;;
23720;SDS011;42950;52.134;5.578;2023-05-10T06:02:09;117.45;;;44.65;;
23720;SDS011;42950;52.134;5.578;2023-05-10T06:04:35;133.40;;;47.88;;
23720;SDS011;42950;52.134;5.578;2023-05-10T06:07:00;133.07;;;48.50;;
23720;SDS011;42950;52.134;5.578;2023-05-10T06:09:26;145.05;;;50.05;;
23720;SDS011;42950;52.134;5.578;2023-05-10T06:11:52;125.85;;;45.55;;
23720;SDS011;42950;52.134;5.578;2023-05-10T06:14:19;133.05;;;49.00;;
23720;SDS011;42950;52.134;5.578;2023-05-10T06:16:45;135.90;;;47.05;;
23720;SDS011;42950;52.134;5.578;2023-05-10T06:19:12;123.78;;;48.47;;
23720;SDS011;42950;52.134;5.578;2023-05-10T06:21:38;116.95;;;46.42;;
23720;SDS011;42950;52.134;5.578;2023-05-10T06:24:04;116.40;;;46.70;;
23720;SDS011;42950;52.134;5.578;2023-05-10T06:26:32;118.50;;;47.53;;
23720;SDS011;42950;52.134;5.578;2023-05-10T06:28:58;104.60;;;46.08;;
23720;SDS011;42950;52.134;5.578;2023-05-10T06:31:24;105.57;;;47.53;;
23720;SDS011;42950;52.134;5.578;2023-05-10T06:33:51;107.80;;;47.25;;
23720;SDS011;42950;52.134;5.578;2023-05-10T06:36:19;102.40;;;46.38;;
23720;SDS011;42950;52.134;5.578;2023-05-10T06:38:45;98.55;;;46.35;;
23720;SDS011;42950;52.134;5.578;2023-05-10T06:41:11;104.32;;;46.08;;
23720;SDS011;42950;52.134;5.578;2023-05-10T06:43:37;97.20;;;44.67;;
23720;SDS011;42950;52.134;5.578;2023-05-10T06:46:06;93.78;;;45.08;;
23720;SDS011;42950;52.134;5.578;2023-05-10T06:48:32;92.93;;;43.95;;
23720;SDS011;42950;52.134;5.578;2023-05-10T06:50:58;90.80;;;43.65;;
23720;SDS011;42950;52.134;5.578;2023-05-10T06:53:23;87.50;;;42.80;;
23720;SDS011;42950;52.134;5.578;2023-05-10T06:55:49;83.07;;;41.83;;
23720;SDS011;42950;52.134;5.578;2023-05-10T06:58:15;91.70;;;43.40;;
23720;SDS011;42950;52.134;5.578;2023-05-10T07:00:41;92.97;;;42.40;;
23720;SDS011;42950;52.134;5.578;2023-05-10T07:03:09;76.68;;;39.45;;
23720;SDS011;42950;52.134;5.578;2023-05-10T07:05:35;77.30;;;37.90;;
23720;SDS011;42950;52.134;5.578;2023-05-10T07:08:01;68.50;;;35.50;;
23720;SDS011;42950;52.134;5.578;2023-05-10T07:10:27;70.78;;;35.50;;
23720;SDS011;42950;52.134;5.578;2023-05-10T07:12:53;71.85;;;35.17;;
23720;SDS011;42950;52.134;5.578;2023-05-10T07:15:20;61.22;;;33.53;;
23720;SDS011;42950;52.134;5.578;2023-05-10T07:17:46;60.28;;;32.72;;
23720;SDS011;42950;52.134;5.578;2023-05-10T07:20:12;51.50;;;28.38;;
23720;SDS011;42950;52.134;5.578;2023-05-10T07:22:38;47.42;;;25.92;;
23720;SDS011;42950;52.134;5.578;2023-05-10T07:25:03;44.53;;;25.55;;
23720;SDS011;42950;52.134;5.578;2023-05-10T07:27:30;40.30;;;24.40;;
23720;SDS011;42950;52.134;5.578;2023-05-10T07:29:57;40.83;;;24.45;;
23720;SDS011;42950;52.134;5.578;2023-05-10T07:32:23;38.88;;;23.00;;
23720;SDS011;42950;52.134;5.578;2023-05-10T07:34:49;40.03;;;23.23;;
23720;SDS011;42950;52.134;5.578;2023-05-10T07:37:16;37.83;;;23.00;;
23720;SDS011;42950;52.134;5.578;2023-05-10T07:39:41;40.25;;;22.90;;
23720;SDS011;42950;52.134;5.578;2023-05-10T07:42:07;36.35;;;22.58;;
23720;SDS011;42950;52.134;5.578;2023-05-10T07:44:33;29.08;;;19.15;;
23720;SDS011;42950;52.134;5.578;2023-05-10T07:46:59;27.35;;;17.60;;
23720;SDS011;42950;52.134;5.578;2023-05-10T07:49:25;25.98;;;17.38;;
23720;SDS011;42950;52.134;5.578;2023-05-10T07:51:52;29.10;;;17.55;;
23720;SDS011;42950;52.134;5.578;2023-05-10T07:54:18;27.83;;;17.52;;
23720;SDS011;42950;52.134;5.578;2023-05-10T07:56:44;26.13;;;17.55;;
23720;SDS011;42950;52.134;5.578;2023-05-10T07:59:14;27.33;;;17.60;;
23720;SDS011;42950;52.134;5.578;2023-05-10T08:01:42;27.92;;;17.95;;
23720;SDS011;42950;52.134;5.578;2023-05-10T08:04:08;26.10;;;17.17;;
23720;SDS011;42950;52.134;5.578;2023-05-10T08:06:34;23.30;;;16.00;;
23720;SDS011;42950;52.134;5.578;2023-05-10T08:09:00;27.05;;;15.48;;
23720;SDS011;42950;52.134;5.578;2023-05-10T08:11:25;24.50;;;15.30;;
23720;SDS011;42950;52.134;5.578;2023-05-10T08:13:52;23.85;;;15.85;;
23720;SDS011;42950;52.134;5.578;2023-05-10T08:16:18;26.85;;;16.95;;
23720;SDS011;42950;52.134;5.578;2023-05-10T08:18:45;24.08;;;15.85;;
23720;SDS011;42950;52.134;5.578;2023-05-10T08:21:12;25.13;;;16.67;;
23720;SDS011;42950;52.134;5.578;2023-05-10T08:23:38;21.85;;;15.93;;
23720;SDS011;42950;52.134;5.578;2023-05-10T08:26:04;26.02;;;15.75;;
23720;SDS011;42950;52.134;5.578;2023-05-10T08:28:30;22.88;;;15.88;;
23720;SDS011;42950;52.134;5.578;2023-05-10T08:30:56;20.27;;;15.30;;
23720;SDS011;42950;52.134;5.578;2023-05-10T08:33:22;17.95;;;13.13;;
23720;SDS011;42950;52.134;5.578;2023-05-10T08:35:47;18.80;;;12.90;;
23720;SDS011;42950;52.134;5.578;2023-05-10T08:38:13;18.48;;;12.65;;
23720;SDS011;42950;52.134;5.578;2023-05-10T08:40:42;18.55;;;13.73;;
23720;SDS011;42950;52.134;5.578;2023-05-10T08:43:09;18.02;;;13.85;;
23720;SDS011;42950;52.134;5.578;2023-05-10T08:45:43;18.90;;;13.93;;
23720;SDS011;42950;52.134;5.578;2023-05-10T08:48:13;22.70;;;14.68;;
23720;SDS011;42950;52.134;5.578;2023-05-10T08:50:40;21.30;;;13.80;;
23720;SDS011;42950;52.134;5.578;2023-05-10T08:53:10;19.10;;;14.13;;
23720;SDS011;42950;52.134;5.578;2023-05-10T08:55:38;22.23;;;14.80;;
23720;SDS011;42950;52.134;5.578;2023-05-10T08:58:05;18.15;;;14.65;;
23720;SDS011;42950;52.134;5.578;2023-05-10T09:00:31;20.90;;;15.45;;
23720;SDS011;42950;52.134;5.578;2023-05-10T09:02:57;20.83;;;14.93;;
23720;SDS011;42950;52.134;5.578;2023-05-10T09:05:23;21.90;;;16.38;;
23720;SDS011;42950;52.134;5.578;2023-05-10T09:07:49;19.92;;;14.88;;
23720;SDS011;42950;52.134;5.578;2023-05-10T09:10:15;22.75;;;15.65;;
23720;SDS011;42950;52.134;5.578;2023-05-10T09:12:41;21.08;;;15.68;;
23720;SDS011;42950;52.134;5.578;2023-05-10T09:15:10;22.55;;;15.93;;
23720;SDS011;42950;52.134;5.578;2023-05-10T09:17:37;19.85;;;14.52;;
23720;SDS011;42950;52.134;5.578;2023-05-10T09:20:05;20.38;;;14.48;;
23720;SDS011;42950;52.134;5.578;2023-05-10T09:22:31;20.95;;;14.38;;
23720;SDS011;42950;52.134;5.578;2023-05-10T09:25:07;17.52;;;13.18;;
23720;SDS011;42950;52.134;5.578;2023-05-10T09:27:34;19.02;;;14.25;;
23720;SDS011;42950;52.134;5.578;2023-05-10T09:30:00;16.83;;;13.77;;
23720;SDS011;42950;52.134;5.578;2023-05-10T09:32:47;19.45;;;14.20;;
23720;SDS011;42950;52.134;5.578;2023-05-10T09:35:16;18.48;;;14.25;;
23720;SDS011;42950;52.134;5.578;2023-05-10T09:37:44;21.65;;;15.18;;
23720;SDS011;42950;52.134;5.578;2023-05-10T09:40:16;21.65;;;15.30;;
23720;SDS011;42950;52.134;5.578;2023-05-10T09:45:33;19.95;;;15.45;;
23720;SDS011;42950;52.134;5.578;2023-05-10T09:48:00;19.85;;;14.95;;
23720;SDS011;42950;52.134;5.578;2023-05-10T09:50:27;18.65;;;13.70;;
23720;SDS011;42950;52.134;5.578;2023-05-10T09:52:55;16.70;;;12.35;;
23720;SDS011;42950;52.134;5.578;2023-05-10T09:58:02;15.80;;;12.90;;
23720;SDS011;42950;52.134;5.578;2023-05-10T10:00:34;16.45;;;12.80;;
23720;SDS011;42950;52.134;5.578;2023-05-10T10:03:00;13.45;;;11.18;;
23720;SDS011;42950;52.134;5.578;2023-05-10T10:05:33;14.07;;;10.32;;
23720;SDS011;42950;52.134;5.578;2023-05-10T10:08:02;8.57;;;6.78;;
23720;SDS011;42950;52.134;5.578;2023-05-10T10:10:29;10.68;;;8.77;;
23720;SDS011;42950;52.134;5.578;2023-05-10T10:12:56;8.18;;;6.72;;
23720;SDS011;42950;52.134;5.578;2023-05-10T10:15:23;9.10;;;7.05;;
23720;SDS011;42950;52.134;5.578;2023-05-10T10:17:51;9.15;;;8.02;;
23720;SDS011;42950;52.134;5.578;2023-05-10T10:20:18;8.27;;;6.43;;
23720;SDS011;42950;52.134;5.578;2023-05-10T10:22:44;8.32;;;6.43;;
23720;SDS011;42950;52.134;5.578;2023-05-10T10:25:12;8.82;;;7.45;;
23720;SDS011;42950;52.134;5.578;2023-05-10T10:35:47;8.65;;;6.25;;
23720;SDS011;42950;52.134;5.578;2023-05-10T10:38:13;7.25;;;6.53;;
23720;SDS011;42950;52.134;5.578;2023-05-10T10:40:39;7.43;;;6.38;;
23720;SDS011;42950;52.134;5.578;2023-05-10T10:43:21;8.52;;;6.75;;
23720;SDS011;42950;52.134;5.578;2023-05-10T10:45:59;8.50;;;6.07;;
23720;SDS011;42950;52.134;5.578;2023-05-10T10:48:39;9.38;;;5.80;;
23720;SDS011;42950;52.134;5.578;2023-05-10T10:51:16;6.43;;;5.60;;
23720;SDS011;42950;52.134;5.578;2023-05-10T10:53:42;6.18;;;5.57;;
23720;SDS011;42950;52.134;5.578;2023-05-10T10:56:09;9.10;;;5.68;;
23720;SDS011;42950;52.134;5.578;2023-05-10T10:58:36;7.05;;;5.22;;
23720;SDS011;42950;52.134;5.578;2023-05-10T11:01:12;8.27;;;5.40;;
23720;SDS011;42950;52.134;5.578;2023-05-10T11:06:32;7.90;;;6.10;;
23720;SDS011;42950;52.134;5.578;2023-05-10T11:08:59;9.20;;;6.57;;
23720;SDS011;42950;52.134;5.578;2023-05-10T11:11:32;9.40;;;6.47;;
23720;SDS011;42950;52.134;5.578;2023-05-10T11:14:06;8.27;;;7.15;;
23720;SDS011;42950;52.134;5.578;2023-05-10T11:16:42;9.80;;;8.07;;
23720;SDS011;42950;52.134;5.578;2023-05-10T11:19:11;9.73;;;8.10;;
23720;SDS011;42950;52.134;5.578;2023-05-10T11:21:51;10.65;;;8.35;;
23720;SDS011;42950;52.134;5.578;2023-05-10T11:24:38;11.05;;;8.52;;
23720;SDS011;42950;52.134;5.578;2023-05-10T11:27:03;12.90;;;9.32;;
23720;SDS011;42950;52.134;5.578;2023-05-10T11:29:29;11.77;;;8.43;;
23720;SDS011;42950;52.134;5.578;2023-05-10T11:31:58;10.43;;;9.02;;
23720;SDS011;42950;52.134;5.578;2023-05-10T11:36:51;10.48;;;8.07;;
23720;SDS011;42950;52.134;5.578;2023-05-10T11:39:18;10.85;;;8.32;;
23720;SDS011;42950;52.134;5.578;2023-05-10T11:41:47;11.90;;;9.10;;
23720;SDS011;42950;52.134;5.578;2023-05-10T11:44:13;9.82;;;7.90;;
23720;SDS011;42950;52.134;5.578;2023-05-10T11:46:40;11.93;;;8.45;;
23720;SDS011;42950;52.134;5.578;2023-05-10T11:49:06;9.57;;;7.22;;
23720;SDS011;42950;52.134;5.578;2023-05-10T11:51:33;7.93;;;6.90;;
23720;SDS011;42950;52.134;5.578;2023-05-10T11:54:05;7.35;;;6.38;;
23720;SDS011;42950;52.134;5.578;2023-05-10T11:56:32;7.65;;;6.18;;
23720;SDS011;42950;52.134;5.578;2023-05-10T11:58:58;9.48;;;6.72;;
23720;SDS011;42950;52.134;5.578;2023-05-10T12:01:26;8.32;;;6.70;;
23720;SDS011;42950;52.134;5.578;2023-05-10T12:03:52;9.30;;;6.85;;
23720;SDS011;42950;52.134;5.578;2023-05-10T12:06:20;9.15;;;7.25;;
23720;SDS011;42950;52.134;5.578;2023-05-10T12:08:47;7.38;;;6.63;;
23720;SDS011;42950;52.134;5.578;2023-05-10T12:11:14;8.18;;;7.13;;
23720;SDS011;42950;52.134;5.578;2023-05-10T12:13:41;9.77;;;7.68;;
23720;SDS011;42950;52.134;5.578;2023-05-10T12:16:15;9.40;;;6.68;;
23720;SDS011;42950;52.134;5.578;2023-05-10T12:18:52;10.10;;;6.25;;
23720;SDS011;42950;52.134;5.578;2023-05-10T12:21:20;7.97;;;6.15;;
23720;SDS011;42950;52.134;5.578;2023-05-10T12:23:47;9.20;;;6.70;;
23720;SDS011;42950;52.134;5.578;2023-05-10T12:26:15;8.02;;;6.00;;
23720;SDS011;42950;52.134;5.578;2023-05-10T12:28:41;9.02;;;6.78;;
23720;SDS011;42950;52.134;5.578;2023-05-10T12:31:07;8.65;;;6.72;;
23720;SDS011;42950;52.134;5.578;2023-05-10T12:33:40;7.00;;;5.95;;
23720;SDS011;42950;52.134;5.578;2023-05-10T12:36:10;8.20;;;6.38;;
23720;SDS011;42950;52.134;5.578;2023-05-10T12:38:40;8.77;;;6.85;;
23720;SDS011;42950;52.134;5.578;2023-05-10T12:41:11;8.52;;;5.70;;
23720;SDS011;42950;52.134;5.578;2023-05-10T12:43:38;6.07;;;5.47;;
23720;SDS011;42950;52.134;5.578;2023-05-10T12:46:09;6.63;;;5.55;;
23720;SDS011;42950;52.134;5.578;2023-05-10T12:48:36;8.02;;;5.65;;
23720;SDS011;42950;52.134;5.578;2023-05-10T12:51:02;6.53;;;5.25;;
23720;SDS011;42950;52.134;5.578;2023-05-10T12:53:28;9.13;;;5.53;;
23720;SDS011;42950;52.134;5.578;2023-05-10T12:55:54;8.60;;;5.45;;
23720;SDS011;42950;52.134;5.578;2023-05-10T12:58:21;7.97;;;4.20;;
23720;SDS011;42950;52.134;5.578;2023-05-10T13:00:46;7.18;;;3.88;;
23720;SDS011;42950;52.134;5.578;2023-05-10T13:03:12;6.60;;;3.60;;
23720;SDS011;42950;52.134;5.578;2023-05-10T13:05:40;4.82;;;3.70;;
23720;SDS011;42950;52.134;5.578;2023-05-10T13:08:06;4.97;;;3.80;;
23720;SDS011;42950;52.134;5.578;2023-05-10T13:10:32;6.60;;;4.13;;
23720;SDS011;42950;52.134;5.578;2023-05-10T13:12:58;4.82;;;4.30;;
23720;SDS011;42950;52.134;5.578;2023-05-10T13:15:25;5.05;;;3.90;;
23720;SDS011;42950;52.134;5.578;2023-05-10T13:17:51;3.97;;;3.55;;
23720;SDS011;42950;52.134;5.578;2023-05-10T13:20:16;5.03;;;3.30;;
23720;SDS011;42950;52.134;5.578;2023-05-10T13:22:45;6.70;;;3.58;;
23720;SDS011;42950;52.134;5.578;2023-05-10T13:25:11;5.47;;;3.20;;
23720;SDS011;42950;52.134;5.578;2023-05-10T13:27:39;3.78;;;2.95;;
23720;SDS011;42950;52.134;5.578;2023-05-10T13:30:07;3.20;;;2.90;;
23720;SDS011;42950;52.134;5.578;2023-05-10T13:32:33;5.07;;;3.10;;
23720;SDS011;42950;52.134;5.578;2023-05-10T13:34:59;4.65;;;3.22;;
23720;SDS011;42950;52.134;5.578;2023-05-10T13:37:25;5.25;;;3.30;;
23720;SDS011;42950;52.134;5.578;2023-05-10T13:39:50;4.30;;;3.20;;
23720;SDS011;42950;52.134;5.578;2023-05-10T13:42:16;4.90;;;3.03;;
23720;SDS011;42950;52.134;5.578;2023-05-10T13:44:44;3.95;;;3.60;;
23720;SDS011;42950;52.134;5.578;2023-05-10T13:47:10;4.30;;;3.90;;
23720;SDS011;42950;52.134;5.578;2023-05-10T13:49:36;7.45;;;5.15;;
23720;SDS011;42950;52.134;5.578;2023-05-10T13:52:02;6.95;;;5.70;;
23720;SDS011;42950;52.134;5.578;2023-05-10T13:54:34;7.88;;;6.47;;
23720;SDS011;42950;52.134;5.578;2023-05-10T13:57:00;7.57;;;6.65;;
23720;SDS011;42950;52.134;5.578;2023-05-10T13:59:28;9.65;;;6.05;;
23720;SDS011;42950;52.134;5.578;2023-05-10T14:01:54;6.30;;;5.25;;
23720;SDS011;42950;52.134;5.578;2023-05-10T14:04:20;9.23;;;5.25;;
23720;SDS011;42950;52.134;5.578;2023-05-10T14:06:46;6.43;;;4.57;;
23720;SDS011;42950;52.134;5.578;2023-05-10T14:09:12;6.40;;;4.28;;
23720;SDS011;42950;52.134;5.578;2023-05-10T14:11:37;7.88;;;4.68;;
23720;SDS011;42950;52.134;5.578;2023-05-10T14:14:06;7.93;;;5.40;;
23720;SDS011;42950;52.134;5.578;2023-05-10T14:16:32;7.25;;;4.90;;
23720;SDS011;42950;52.134;5.578;2023-05-10T14:18:59;5.65;;;4.57;;
23720;SDS011;42950;52.134;5.578;2023-05-10T14:21:26;8.27;;;4.30;;
23720;SDS011;42950;52.134;5.578;2023-05-10T14:23:54;8.77;;;4.13;;
23720;SDS011;42950;52.134;5.578;2023-05-10T14:26:21;7.30;;;4.00;;
23720;SDS011;42950;52.134;5.578;2023-05-10T14:28:47;7.35;;;4.57;;
23720;SDS011;42950;52.134;5.578;2023-05-10T14:31:15;7.40;;;4.75;;
23720;SDS011;42950;52.134;5.578;2023-05-10T14:33:41;6.85;;;4.57;;
23720;SDS011;42950;52.134;5.578;2023-05-10T14:36:07;5.25;;;4.60;;
23720;SDS011;42950;52.134;5.578;2023-05-10T14:38:33;5.70;;;4.88;;
23720;SDS011;42950;52.134;5.578;2023-05-10T14:41:01;6.57;;;4.70;;
23720;SDS011;42950;52.134;5.578;2023-05-10T14:43:27;8.82;;;4.75;;
23720;SDS011;42950;52.134;5.578;2023-05-10T14:45:53;7.05;;;4.60;;
23720;SDS011;42950;52.134;5.578;2023-05-10T14:48:20;6.35;;;5.20;;
23720;SDS011;42950;52.134;5.578;2023-05-10T14:50:46;6.55;;;5.15;;
23720;SDS011;42950;52.134;5.578;2023-05-10T14:53:12;7.55;;;5.28;;
23720;SDS011;42950;52.134;5.578;2023-05-10T14:55:37;8.32;;;5.65;;
23720;SDS011;42950;52.134;5.578;2023-05-10T14:58:05;6.82;;;5.22;;
23720;SDS011;42950;52.134;5.578;2023-05-10T15:00:30;7.07;;;5.50;;
23720;SDS011;42950;52.134;5.578;2023-05-10T15:03:02;7.75;;;6.38;;
23720;SDS011;42950;52.134;5.578;2023-05-10T15:05:28;7.30;;;6.45;;